Airfield :
LOGIN :

Register | Disclaimer

   EN    FR    IT 

 










Legend :    VFR   Marginal VFR   IFR   Intensive IFR   Very Intensive IFR
Visi :
Ceiling :
>= 8 km
>= 3000ft
5 to 8 km
1000 to 3000 ft
1500m to 5 km
500 to 1000 ft
800 to 1500m
200 to 500 ft
< 800m
< 200 ft
Symbols :   Thunderstorms  Fog  Heavy snow  Heavy precipitations  Wind > 20 kt
SIGMETs :     Misc.  Thunderstorms  Icing  Turbulence  Mountain Waves  Volcanic Ashes







- Airport Elevation : 101 ft
- IATA code : GLO
- Download approach charts


EGBJ - Gloucestershire

CURRENT METAR :
  • 151250Z 04011KT 9000 BKN006 BKN008 11/10 Q1012

EXPIRED METARs :
  • 151220Z 04006KT 6000 -RA BKN005 BKN010 11/10 Q1012
  • 151150Z 03007KT 6000 -RA BKN005 BKN010 11/10 Q1012 RERA
  • 151120Z 02006KT 3000 RA BR BKN004 OVC010 10/10 Q1012
  • 151050Z 01006KT 3000 RA BR BKN003 OVC009 10/10 Q1012
  • 151020Z 36006KT 2400 RA BR BKN003 OVC007 10/10 Q1012

TAF TAF EGBJ
Valid from the 15 at 12:00 until the 15 at 19:00 UTC


151103Z 1512/1519 01008KT 3000 RADZ BKN004
BECMG 1512/1515 9999 NSW BKN012
TEMPO 1515/1519 4500 -DZ BKN004
No reported NOTAMs for that airfield.
1 SIGMET reported for the London FIR (EGTT) :
 
Severe turbulence
EGTT SIGMET 04 VALID 151149/151530 EGRR
EGTT LONDON FIR SEV TURB FCST W OF LINE N5500 W00332 - N4957 W00215 FL240/350 MOV E 20KT WKN=



MET'MAP, your aeronautical weather chart ! - Copyright ORBIFLY December 2007 - Disclaimer

ORBIFLY MET'MAP TEAM :

Programming & Development : Alexandra Zaïnal
Concept & Development : Baudouin d'Aumeries
Co-Development & Prog : Marc-Olivier Méhu
Technical & hardware support : Manuel Goepfert

Contact : metmap@orbifly.com




SOURCES & CREDITS :

   NOAA